sensor_id;sensor_type;location;lat;lon;timestamp;pressure;altitude;pressure_sealevel;temperature;humidity
30935;BME280;51033;42.648;23.292;2023-04-06T00:01:51;93563.00;;;-2.13;59.66
30935;BME280;51033;42.648;23.292;2023-04-06T00:04:16;93579.03;;;-2.05;59.46
30935;BME280;51033;42.648;23.292;2023-04-06T00:06:42;93548.94;;;-2.12;59.33
30935;BME280;51033;42.648;23.292;2023-04-06T00:09:07;93553.31;;;-1.96;59.16
30935;BME280;51033;42.648;23.292;2023-04-06T00:11:33;93563.22;;;-1.76;58.42
30935;BME280;51033;42.648;23.292;2023-04-06T00:13:58;93542.22;;;-1.87;58.41
30935;BME280;51033;42.648;23.292;2023-04-06T00:16:24;93560.84;;;-1.78;58.00
30935;BME280;51033;42.648;23.292;2023-04-06T00:18:49;93549.03;;;-1.86;58.05
30935;BME280;51033;42.648;23.292;2023-04-06T00:21:14;93551.38;;;-1.62;58.31
30935;BME280;51033;42.648;23.292;2023-04-06T00:23:41;93535.59;;;-1.51;57.16
30935;BME280;51033;42.648;23.292;2023-04-06T00:26:06;93516.81;;;-1.53;57.52
30935;BME280;51033;42.648;23.292;2023-04-06T00:28:32;93518.72;;;-1.43;56.91
30935;BME280;51033;42.648;23.292;2023-04-06T00:30:57;93533.63;;;-1.12;56.06
30935;BME280;51033;42.648;23.292;2023-04-06T00:33:23;93521.06;;;-1.15;55.87
30935;BME280;51033;42.648;23.292;2023-04-06T00:35:48;93538.66;;;-1.32;56.42
30935;BME280;51033;42.648;23.292;2023-04-06T00:38:14;93532.22;;;-1.51;56.78
30935;BME280;51033;42.648;23.292;2023-04-06T00:40:40;93532.44;;;-1.53;56.90
30935;BME280;51033;42.648;23.292;2023-04-06T00:43:06;93539.25;;;-1.52;56.80
30935;BME280;51033;42.648;23.292;2023-04-06T00:45:32;93524.69;;;-1.69;57.30
30935;BME280;51033;42.648;23.292;2023-04-06T00:47:58;93535.78;;;-1.79;57.67
30935;BME280;51033;42.648;23.292;2023-04-06T00:50:23;93509.69;;;-2.06;58.39
30935;BME280;51033;42.648;23.292;2023-04-06T00:52:48;93541.19;;;-2.07;59.52
30935;BME280;51033;42.648;23.292;2023-04-06T00:55:14;93537.41;;;-1.95;59.11
30935;BME280;51033;42.648;23.292;2023-04-06T00:57:40;93536.41;;;-1.94;59.16
30935;BME280;51033;42.648;23.292;2023-04-06T01:00:05;93534.47;;;-1.82;59.15
30935;BME280;51033;42.648;23.292;2023-04-06T01:02:31;93534.38;;;-1.65;58.68
30935;BME280;51033;42.648;23.292;2023-04-06T01:04:57;93526.56;;;-1.65;58.49
30935;BME280;51033;42.648;23.292;2023-04-06T01:07:22;93504.38;;;-1.67;58.07
30935;BME280;51033;42.648;23.292;2023-04-06T01:09:48;93532.34;;;-1.36;57.53
30935;BME280;51033;42.648;23.292;2023-04-06T01:12:13;93506.59;;;-1.54;57.61
30935;BME280;51033;42.648;23.292;2023-04-06T01:14:38;93527.81;;;-1.46;57.64
30935;BME280;51033;42.648;23.292;2023-04-06T01:17:04;93521.34;;;-1.43;57.70
30935;BME280;51033;42.648;23.292;2023-04-06T01:19:29;93512.13;;;-1.24;57.59
30935;BME280;51033;42.648;23.292;2023-04-06T01:21:55;93511.56;;;-1.26;57.28
30935;BME280;51033;42.648;23.292;2023-04-06T01:24:21;93489.63;;;-1.30;57.05
30935;BME280;51033;42.648;23.292;2023-04-06T01:26:47;93501.13;;;-1.26;57.17
30935;BME280;51033;42.648;23.292;2023-04-06T01:29:12;93512.75;;;-1.12;57.07
30935;BME280;51033;42.648;23.292;2023-04-06T01:31:38;93519.84;;;-1.34;57.45
30935;BME280;51033;42.648;23.292;2023-04-06T01:34:04;93496.09;;;-1.38;57.88
30935;BME280;51033;42.648;23.292;2023-04-06T01:36:30;93519.28;;;-1.41;58.09
30935;BME280;51033;42.648;23.292;2023-04-06T01:38:56;93446.31;;;-1.85;57.79
30935;BME280;51033;42.648;23.292;2023-04-06T01:41:21;93482.44;;;-1.45;57.99
30935;BME280;51033;42.648;23.292;2023-04-06T01:43:47;93495.28;;;-1.38;57.87
30935;BME280;51033;42.648;23.292;2023-04-06T01:46:13;93487.06;;;-1.25;57.75
30935;BME280;51033;42.648;23.292;2023-04-06T01:48:38;93502.91;;;-1.05;57.30
30935;BME280;51033;42.648;23.292;2023-04-06T01:51:04;93504.66;;;-1.10;57.39
30935;BME280;51033;42.648;23.292;2023-04-06T01:53:29;93482.06;;;-1.31;57.40
30935;BME280;51033;42.648;23.292;2023-04-06T01:55:55;93481.28;;;-1.32;57.50
30935;BME280;51033;42.648;23.292;2023-04-06T01:58:20;93472.56;;;-1.43;57.63
30935;BME280;51033;42.648;23.292;2023-04-06T02:00:45;93486.13;;;-1.41;57.94
30935;BME280;51033;42.648;23.292;2023-04-06T02:03:11;93488.84;;;-1.57;58.12
30935;BME280;51033;42.648;23.292;2023-04-06T02:05:36;93488.06;;;-1.58;58.26
30935;BME280;51033;42.648;23.292;2023-04-06T02:08:06;93467.72;;;-1.83;58.93
30935;BME280;51033;42.648;23.292;2023-04-06T02:10:32;93508.13;;;-1.58;59.19
30935;BME280;51033;42.648;23.292;2023-04-06T02:12:58;93508.25;;;-1.48;58.59
30935;BME280;51033;42.648;23.292;2023-04-06T02:15:23;93496.22;;;-1.49;58.76
30935;BME280;51033;42.648;23.292;2023-04-06T02:17:51;93490.38;;;-1.34;58.40
30935;BME280;51033;42.648;23.292;2023-04-06T02:20:16;93502.25;;;-1.22;57.83
30935;BME280;51033;42.648;23.292;2023-04-06T02:22:42;93484.88;;;-1.38;58.07
30935;BME280;51033;42.648;23.292;2023-04-06T02:25:07;93486.78;;;-1.28;57.94
30935;BME280;51033;42.648;23.292;2023-04-06T02:27:33;93493.81;;;-1.29;58.18
30935;BME280;51033;42.648;23.292;2023-04-06T02:29:59;93484.03;;;-1.44;58.52
30935;BME280;51033;42.648;23.292;2023-04-06T02:32:24;93488.31;;;-1.32;58.19
30935;BME280;51033;42.648;23.292;2023-04-06T02:34:50;93467.13;;;-1.36;58.12
30935;BME280;51033;42.648;23.292;2023-04-06T02:37:15;93477.41;;;-1.24;57.87
30935;BME280;51033;42.648;23.292;2023-04-06T02:39:41;93512.31;;;-1.30;58.00
30935;BME280;51033;42.648;23.292;2023-04-06T02:42:06;93505.28;;;-1.57;58.73
30935;BME280;51033;42.648;23.292;2023-04-06T02:44:32;93505.47;;;-1.63;59.36
30935;BME280;51033;42.648;23.292;2023-04-06T02:46:57;93491.06;;;-1.71;59.54
30935;BME280;51033;42.648;23.292;2023-04-06T02:49:22;93495.16;;;-1.53;59.28
30935;BME280;51033;42.648;23.292;2023-04-06T02:51:48;93479.34;;;-1.68;59.53
30935;BME280;51033;42.648;23.292;2023-04-06T02:54:13;93486.88;;;-1.72;59.90
30935;BME280;51033;42.648;23.292;2023-04-06T02:56:39;93442.28;;;-1.97;59.76
30935;BME280;51033;42.648;23.292;2023-04-06T02:59:04;93461.47;;;-1.82;59.55
30935;BME280;51033;42.648;23.292;2023-04-06T03:01:30;93482.91;;;-1.74;59.78
30935;BME280;51033;42.648;23.292;2023-04-06T03:03:55;93465.66;;;-1.80;59.69
30935;BME280;51033;42.648;23.292;2023-04-06T03:06:21;93438.34;;;-2.00;59.75
30935;BME280;51033;42.648;23.292;2023-04-06T03:08:46;93496.00;;;-1.69;59.91
30935;BME280;51033;42.648;23.292;2023-04-06T03:11:12;93469.59;;;-1.78;59.93
30935;BME280;51033;42.648;23.292;2023-04-06T03:13:37;93479.91;;;-1.66;59.77
30935;BME280;51033;42.648;23.292;2023-04-06T03:16:06;93476.03;;;-1.86;60.10
30935;BME280;51033;42.648;23.292;2023-04-06T03:18:31;93494.03;;;-1.84;60.62
30935;BME280;51033;42.648;23.292;2023-04-06T03:20:57;93481.94;;;-1.95;61.00
30935;BME280;51033;42.648;23.292;2023-04-06T03:23:22;93498.31;;;-1.73;60.59
30935;BME280;51033;42.648;23.292;2023-04-06T03:25:48;93493.97;;;-1.67;60.18
30935;BME280;51033;42.648;23.292;2023-04-06T03:28:13;93488.41;;;-1.76;60.32
30935;BME280;51033;42.648;23.292;2023-04-06T03:30:39;93412.03;;;-2.25;60.13
30935;BME280;51033;42.648;23.292;2023-04-06T03:33:05;93468.84;;;-1.73;60.22
30935;BME280;51033;42.648;23.292;2023-04-06T03:35:30;93468.22;;;-1.59;59.50
30935;BME280;51033;42.648;23.292;2023-04-06T03:37:55;93428.13;;;-1.79;59.15
30935;BME280;51033;42.648;23.292;2023-04-06T03:40:21;93475.81;;;-1.57;59.28
30935;BME280;51033;42.648;23.292;2023-04-06T03:42:46;93466.47;;;-1.75;59.40
30935;BME280;51033;42.648;23.292;2023-04-06T03:45:12;93495.81;;;-1.36;58.75
30935;BME280;51033;42.648;23.292;2023-04-06T03:47:40;93491.25;;;-1.24;58.48
30935;BME280;51033;42.648;23.292;2023-04-06T03:50:06;93448.25;;;-1.48;58.26
30935;BME280;51033;42.648;23.292;2023-04-06T03:52:31;93488.63;;;-1.24;58.14
30935;BME280;51033;42.648;23.292;2023-04-06T03:54:56;93480.72;;;-1.34;57.91
30935;BME280;51033;42.648;23.292;2023-04-06T03:57:22;93473.41;;;-1.37;58.08
30935;BME280;51033;42.648;23.292;2023-04-06T03:59:47;93476.63;;;-1.25;57.84
30935;BME280;51033;42.648;23.292;2023-04-06T04:02:13;93483.19;;;-1.22;58.06
30935;BME280;51033;42.648;23.292;2023-04-06T04:04:38;93485.97;;;-1.02;57.53
30935;BME280;51033;42.648;23.292;2023-04-06T04:07:03;93496.66;;;-1.04;57.21
30935;BME280;51033;42.648;23.292;2023-04-06T04:09:29;93491.16;;;-1.07;57.40
30935;BME280;51033;42.648;23.292;2023-04-06T04:11:55;93481.00;;;-1.04;56.86
30935;BME280;51033;42.648;23.292;2023-04-06T04:14:20;93476.88;;;-0.95;56.57
30935;BME280;51033;42.648;23.292;2023-04-06T04:16:47;93446.81;;;-1.34;56.86
30935;BME280;51033;42.648;23.292;2023-04-06T04:19:12;93490.41;;;-1.03;56.81
30935;BME280;51033;42.648;23.292;2023-04-06T04:21:45;93488.00;;;-1.09;57.10
30935;BME280;51033;42.648;23.292;2023-04-06T04:24:11;93473.97;;;-1.30;57.20
30935;BME280;51033;42.648;23.292;2023-04-06T04:26:37;93498.06;;;-1.23;57.43
30935;BME280;51033;42.648;23.292;2023-04-06T04:29:03;93485.69;;;-1.32;57.70
30935;BME280;51033;42.648;23.292;2023-04-06T04:31:28;93496.78;;;-1.47;58.39
30935;BME280;51033;42.648;23.292;2023-04-06T04:33:54;93467.19;;;-1.58;58.61
30935;BME280;51033;42.648;23.292;2023-04-06T04:36:19;93466.50;;;-1.48;57.98
30935;BME280;51033;42.648;23.292;2023-04-06T04:38:45;93474.94;;;-1.41;57.66
30935;BME280;51033;42.648;23.292;2023-04-06T04:41:10;93489.09;;;-1.32;57.68
30935;BME280;51033;42.648;23.292;2023-04-06T04:43:35;93474.44;;;-1.38;57.97
30935;BME280;51033;42.648;23.292;2023-04-06T04:46:01;93424.97;;;-1.55;57.84
30935;BME280;51033;42.648;23.292;2023-04-06T04:48:26;93486.66;;;-1.12;57.52
30935;BME280;51033;42.648;23.292;2023-04-06T04:50:52;93484.34;;;-1.08;57.31
30935;BME280;51033;42.648;23.292;2023-04-06T04:53:17;93476.69;;;-0.88;56.80
30935;BME280;51033;42.648;23.292;2023-04-06T04:55:42;93476.72;;;-0.83;56.86
30935;BME280;51033;42.648;23.292;2023-04-06T04:58:08;93473.34;;;-0.78;56.58
30935;BME280;51033;42.648;23.292;2023-04-06T05:00:36;93442.94;;;-0.95;56.23
30935;BME280;51033;42.648;23.292;2023-04-06T05:03:02;93473.31;;;-0.83;56.45
30935;BME280;51033;42.648;23.292;2023-04-06T05:05:29;93470.69;;;-0.83;56.68
30935;BME280;51033;42.648;23.292;2023-04-06T05:07:55;93489.03;;;-0.78;56.64
30935;BME280;51033;42.648;23.292;2023-04-06T05:10:20;93491.69;;;-0.68;57.26
30935;BME280;51033;42.648;23.292;2023-04-06T05:12:45;93481.41;;;-0.80;56.48
30935;BME280;51033;42.648;23.292;2023-04-06T05:15:11;93450.78;;;-0.95;56.83
30935;BME280;51033;42.648;23.292;2023-04-06T05:17:36;93473.03;;;-0.82;56.73
30935;BME280;51033;42.648;23.292;2023-04-06T05:20:02;93485.47;;;-0.57;56.75
30935;BME280;51033;42.648;23.292;2023-04-06T05:22:27;93481.16;;;-0.36;56.43
30935;BME280;51033;42.648;23.292;2023-04-06T05:24:53;93480.25;;;-0.15;55.78
30935;BME280;51033;42.648;23.292;2023-04-06T05:27:18;93465.88;;;-0.13;54.94
30935;BME280;51033;42.648;23.292;2023-04-06T05:29:44;93468.22;;;-0.16;54.76
30935;BME280;51033;42.648;23.292;2023-04-06T05:32:09;93472.75;;;0.04;55.02
30935;BME280;51033;42.648;23.292;2023-04-06T05:34:35;93468.38;;;0.29;54.72
30935;BME280;51033;42.648;23.292;2023-04-06T05:37:00;93418.38;;;0.01;53.88
30935;BME280;51033;42.648;23.292;2023-04-06T05:39:26;93479.72;;;0.65;53.76
30935;BME280;51033;42.648;23.292;2023-04-06T05:41:51;93476.03;;;0.61;53.52
30935;BME280;51033;42.648;23.292;2023-04-06T05:44:17;93431.44;;;0.11;53.77
30935;BME280;51033;42.648;23.292;2023-04-06T05:46:42;93479.66;;;0.45;54.23
30935;BME280;51033;42.648;23.292;2023-04-06T05:49:07;93472.06;;;0.39;53.98
30935;BME280;51033;42.648;23.292;2023-04-06T05:51:33;93484.38;;;0.38;54.05
30935;BME280;51033;42.648;23.292;2023-04-06T05:53:59;93455.81;;;0.26;54.02
30935;BME280;51033;42.648;23.292;2023-04-06T05:56:24;93481.75;;;0.38;54.10
30935;BME280;51033;42.648;23.292;2023-04-06T05:58:50;93450.25;;;0.08;54.48
30935;BME280;51033;42.648;23.292;2023-04-06T06:01:16;93474.94;;;0.32;54.63
30935;BME280;51033;42.648;23.292;2023-04-06T06:03:41;93429.88;;;0.10;54.68
30935;BME280;51033;42.648;23.292;2023-04-06T06:06:07;93467.63;;;0.39;54.71
30935;BME280;51033;42.648;23.292;2023-04-06T06:08:32;93440.41;;;0.25;54.88
30935;BME280;51033;42.648;23.292;2023-04-06T06:10:57;93447.72;;;0.33;54.37
30935;BME280;51033;42.648;23.292;2023-04-06T06:13:23;93470.78;;;0.56;54.34
30935;BME280;51033;42.648;23.292;2023-04-06T06:15:49;93461.66;;;0.54;53.76
30935;BME280;51033;42.648;23.292;2023-04-06T06:18:15;93459.25;;;0.37;54.02
30935;BME280;51033;42.648;23.292;2023-04-06T06:20:41;93452.91;;;0.18;54.74
30935;BME280;51033;42.648;23.292;2023-04-06T06:23:06;93458.91;;;0.13;54.91
30935;BME280;51033;42.648;23.292;2023-04-06T06:25:32;93466.56;;;0.35;55.03
30935;BME280;51033;42.648;23.292;2023-04-06T06:27:58;93462.66;;;0.43;54.88
30935;BME280;51033;42.648;23.292;2023-04-06T06:30:23;93427.59;;;0.39;54.94
30935;BME280;51033;42.648;23.292;2023-04-06T06:32:50;93451.97;;;0.59;54.34
30935;BME280;51033;42.648;23.292;2023-04-06T06:35:15;93448.31;;;0.75;54.13
30935;BME280;51033;42.648;23.292;2023-04-06T06:37:41;93453.31;;;0.82;53.82
30935;BME280;51033;42.648;23.292;2023-04-06T06:40:06;93436.53;;;0.68;53.20
30935;BME280;51033;42.648;23.292;2023-04-06T06:42:32;93466.91;;;0.84;53.41
30935;BME280;51033;42.648;23.292;2023-04-06T06:44:57;93447.53;;;0.90;53.52
30935;BME280;51033;42.648;23.292;2023-04-06T06:47:23;93454.09;;;0.98;53.19
30935;BME280;51033;42.648;23.292;2023-04-06T06:49:48;93473.19;;;1.29;53.28
30935;BME280;51033;42.648;23.292;2023-04-06T06:52:13;93458.00;;;1.15;52.12
30935;BME280;51033;42.648;23.292;2023-04-06T06:54:39;93473.47;;;1.12;52.56
30935;BME280;51033;42.648;23.292;2023-04-06T06:57:05;93450.94;;;0.80;52.88
30935;BME280;51033;42.648;23.292;2023-04-06T06:59:30;93481.59;;;1.00;53.32
30935;BME280;51033;42.648;23.292;2023-04-06T07:01:56;93464.56;;;0.98;53.31
30935;BME280;51033;42.648;23.292;2023-04-06T07:04:21;93472.16;;;1.19;52.89
30935;BME280;51033;42.648;23.292;2023-04-06T07:06:47;93459.56;;;1.32;52.63
30935;BME280;51033;42.648;23.292;2023-04-06T07:09:12;93445.97;;;1.19;52.98
30935;BME280;51033;42.648;23.292;2023-04-06T07:11:37;93453.00;;;1.34;52.43
30935;BME280;51033;42.648;23.292;2023-04-06T07:14:03;93423.72;;;1.17;52.99
30935;BME280;51033;42.648;23.292;2023-04-06T07:16:28;93444.91;;;1.26;51.84
30935;BME280;51033;42.648;23.292;2023-04-06T07:18:54;93448.31;;;1.06;52.94
30935;BME280;51033;42.648;23.292;2023-04-06T07:21:19;93453.03;;;1.19;53.34
30935;BME280;51033;42.648;23.292;2023-04-06T07:23:45;93446.72;;;1.30;52.53
30935;BME280;51033;42.648;23.292;2023-04-06T07:26:13;93448.31;;;1.36;53.46
30935;BME280;51033;42.648;23.292;2023-04-06T07:28:38;93457.41;;;1.74;52.23
30935;BME280;51033;42.648;23.292;2023-04-06T07:31:04;93469.69;;;1.79;51.80
30935;BME280;51033;42.648;23.292;2023-04-06T07:33:29;93438.31;;;1.43;51.53
30935;BME280;51033;42.648;23.292;2023-04-06T07:35:56;93443.06;;;1.46;51.49
30935;BME280;51033;42.648;23.292;2023-04-06T07:38:21;93432.06;;;1.29;51.97
30935;BME280;51033;42.648;23.292;2023-04-06T07:40:47;93434.16;;;1.37;52.32
30935;BME280;51033;42.648;23.292;2023-04-06T07:43:12;93440.44;;;1.46;52.02
30935;BME280;51033;42.648;23.292;2023-04-06T07:45:38;93429.41;;;1.44;51.80
30935;BME280;51033;42.648;23.292;2023-04-06T07:48:03;93464.47;;;1.74;52.06
30935;BME280;51033;42.648;23.292;2023-04-06T07:50:29;93461.28;;;1.82;51.69
30935;BME280;51033;42.648;23.292;2023-04-06T07:52:54;93459.47;;;1.77;51.21
30935;BME280;51033;42.648;23.292;2023-04-06T07:55:20;93473.66;;;1.76;51.42
30935;BME280;51033;42.648;23.292;2023-04-06T07:57:45;93454.00;;;1.68;51.18
30935;BME280;51033;42.648;23.292;2023-04-06T08:00:11;93435.44;;;1.55;52.03
30935;BME280;51033;42.648;23.292;2023-04-06T08:02:36;93461.34;;;1.72;50.78
30935;BME280;51033;42.648;23.292;2023-04-06T08:05:02;93453.44;;;1.87;51.46
30935;BME280;51033;42.648;23.292;2023-04-06T08:07:27;93444.00;;;1.86;50.53
30935;BME280;51033;42.648;23.292;2023-04-06T08:09:53;93436.97;;;1.66;50.34
30935;BME280;51033;42.648;23.292;2023-04-06T08:12:18;93466.28;;;1.88;51.09
30935;BME280;51033;42.648;23.292;2023-04-06T08:14:44;93449.75;;;1.93;50.44
30935;BME280;51033;42.648;23.292;2023-04-06T08:17:09;93430.38;;;1.89;50.51
30935;BME280;51033;42.648;23.292;2023-04-06T08:19:34;93453.16;;;1.98;50.43
30935;BME280;51033;42.648;23.292;2023-04-06T08:22:00;93448.72;;;1.94;50.59
30935;BME280;51033;42.648;23.292;2023-04-06T08:24:25;93452.66;;;1.81;50.19
30935;BME280;51033;42.648;23.292;2023-04-06T08:26:51;93440.09;;;1.68;51.17
30935;BME280;51033;42.648;23.292;2023-04-06T08:29:17;93477.31;;;1.90;50.95
30935;BME280;51033;42.648;23.292;2023-04-06T08:31:43;93474.94;;;1.89;50.67
30935;BME280;51033;42.648;23.292;2023-04-06T08:34:08;93444.81;;;1.81;50.66
30935;BME280;51033;42.648;23.292;2023-04-06T08:36:33;93457.41;;;1.69;50.42
30935;BME280;51033;42.648;23.292;2023-04-06T08:39:00;93478.63;;;1.73;50.28
30935;BME280;51033;42.648;23.292;2023-04-06T08:41:25;93472.06;;;1.80;50.72
30935;BME280;51033;42.648;23.292;2023-04-06T08:43:59;93480.69;;;2.01;51.17
30935;BME280;51033;42.648;23.292;2023-04-06T08:46:25;93471.66;;;2.27;50.64
30935;BME280;51033;42.648;23.292;2023-04-06T08:48:58;93426.06;;;2.13;48.96
30935;BME280;51033;42.648;23.292;2023-04-06T08:51:24;93434.72;;;2.19;50.44
30935;BME280;51033;42.648;23.292;2023-04-06T08:53:52;93467.88;;;2.48;48.93
30935;BME280;51033;42.648;23.292;2023-04-06T08:56:21;93451.53;;;2.13;49.48
30935;BME280;51033;42.648;23.292;2023-04-06T08:58:47;93433.09;;;2.28;49.49
30935;BME280;51033;42.648;23.292;2023-04-06T09:01:13;93454.22;;;2.51;49.32
30935;BME280;51033;42.648;23.292;2023-04-06T09:03:40;93472.25;;;2.68;49.40
30935;BME280;51033;42.648;23.292;2023-04-06T09:06:08;93448.59;;;2.68;49.42
30935;BME280;51033;42.648;23.292;2023-04-06T09:08:34;93421.69;;;2.47;48.53
30935;BME280;51033;42.648;23.292;2023-04-06T09:11:02;93439.53;;;2.45;48.47
30935;BME280;51033;42.648;23.292;2023-04-06T09:13:27;93447.78;;;2.73;48.42
30935;BME280;51033;42.648;23.292;2023-04-06T09:16:03;93462.44;;;2.84;48.17
30935;BME280;51033;42.648;23.292;2023-04-06T09:18:30;93456.69;;;2.77;47.62
30935;BME280;51033;42.648;23.292;2023-04-06T09:21:04;93453.75;;;2.44;48.28
30935;BME280;51033;42.648;23.292;2023-04-06T09:23:30;93455.41;;;2.25;48.68
30935;BME280;51033;42.648;23.292;2023-04-06T09:31:15;93438.56;;;2.31;48.25
30935;BME280;51033;42.648;23.292;2023-04-06T09:33:43;93453.59;;;2.65;49.01
30935;BME280;51033;42.648;23.292;2023-04-06T09:36:09;93447.25;;;2.71;48.92
30935;BME280;51033;42.648;23.292;2023-04-06T09:38:38;93437.25;;;2.78;47.75
30935;BME280;51033;42.648;23.292;2023-04-06T09:41:04;93449.41;;;2.69;47.74
30935;BME280;51033;42.648;23.292;2023-04-06T09:43:29;93437.38;;;2.58;48.41
30935;BME280;51033;42.648;23.292;2023-04-06T09:45:56;93450.94;;;2.70;47.92
30935;BME280;51033;42.648;23.292;2023-04-06T09:48:24;93452.97;;;2.83;47.74
30935;BME280;51033;42.648;23.292;2023-04-06T09:50:50;93436.22;;;2.74;47.81
30935;BME280;51033;42.648;23.292;2023-04-06T09:53:19;93455.03;;;2.86;47.76
30935;BME280;51033;42.648;23.292;2023-04-06T09:55:46;93448.81;;;2.77;46.55
30935;BME280;51033;42.648;23.292;2023-04-06T09:58:19;93434.19;;;2.61;47.51
30935;BME280;51033;42.648;23.292;2023-04-06T10:01:01;93435.69;;;2.77;47.59
30935;BME280;51033;42.648;23.292;2023-04-06T10:03:47;93453.66;;;2.99;47.15
30935;BME280;51033;42.648;23.292;2023-04-06T10:06:20;93455.81;;;2.91;46.89
30935;BME280;51033;42.648;23.292;2023-04-06T10:08:51;93447.75;;;2.78;47.19
30935;BME280;51033;42.648;23.292;2023-04-06T10:11:17;93443.00;;;2.80;48.41
30935;BME280;51033;42.648;23.292;2023-04-06T10:13:44;93446.56;;;2.94;47.74
30935;BME280;51033;42.648;23.292;2023-04-06T10:16:13;93399.75;;;2.72;47.05
30935;BME280;51033;42.648;23.292;2023-04-06T10:18:42;93427.34;;;3.04;47.84
30935;BME280;51033;42.648;23.292;2023-04-06T10:21:12;93397.41;;;3.00;47.32
30935;BME280;51033;42.648;23.292;2023-04-06T10:23:48;93441.13;;;3.19;45.79
30935;BME280;51033;42.648;23.292;2023-04-06T10:26:15;93440.63;;;3.17;46.49
30935;BME280;51033;42.648;23.292;2023-04-06T10:28:43;93421.72;;;3.15;45.83
30935;BME280;51033;42.648;23.292;2023-04-06T10:31:09;93429.47;;;3.02;46.30
30935;BME280;51033;42.648;23.292;2023-04-06T10:33:35;93409.53;;;2.95;47.22
30935;BME280;51033;42.648;23.292;2023-04-06T10:36:11;93423.41;;;3.01;46.30
30935;BME280;51033;42.648;23.292;2023-04-06T10:38:38;93428.00;;;3.19;47.00
30935;BME280;51033;42.648;23.292;2023-04-06T10:41:04;93421.28;;;3.08;46.77
30935;BME280;51033;42.648;23.292;2023-04-06T10:43:33;93420.44;;;3.13;46.41
30935;BME280;51033;42.648;23.292;2023-04-06T10:46:00;93406.25;;;3.09;46.34
30935;BME280;51033;42.648;23.292;2023-04-06T10:48:40;93428.59;;;3.11;47.11
30935;BME280;51033;42.648;23.292;2023-04-06T10:51:18;93422.31;;;3.07;47.50
30935;BME280;51033;42.648;23.292;2023-04-06T10:53:45;93423.84;;;3.13;48.26
30935;BME280;51033;42.648;23.292;2023-04-06T10:56:13;93417.06;;;3.36;46.96
30935;BME280;51033;42.648;23.292;2023-04-06T10:58:44;93426.44;;;3.18;46.81
30935;BME280;51033;42.648;23.292;2023-04-06T11:01:12;93395.88;;;2.99;47.45
30935;BME280;51033;42.648;23.292;2023-04-06T11:03:45;93414.97;;;3.04;47.83
30935;BME280;51033;42.648;23.292;2023-04-06T11:06:10;93404.94;;;3.11;49.16
30935;BME280;51033;42.648;23.292;2023-04-06T11:08:42;93413.13;;;3.33;47.66
30935;BME280;51033;42.648;23.292;2023-04-06T11:11:13;93408.69;;;3.58;46.29
30935;BME280;51033;42.648;23.292;2023-04-06T11:13:57;93382.97;;;3.55;47.43
30935;BME280;51033;42.648;23.292;2023-04-06T11:16:27;93384.31;;;3.76;46.58
30935;BME280;51033;42.648;23.292;2023-04-06T11:18:58;93397.50;;;3.95;45.44
30935;BME280;51033;42.648;23.292;2023-04-06T11:21:37;93392.91;;;4.05;44.76
30935;BME280;51033;42.648;23.292;2023-04-06T11:29:06;93386.25;;;3.89;44.75
30935;BME280;51033;42.648;23.292;2023-04-06T11:31:38;93365.56;;;3.59;45.29
30935;BME280;51033;42.648;23.292;2023-04-06T11:34:09;93399.47;;;3.84;45.33
30935;BME280;51033;42.648;23.292;2023-04-06T11:36:34;93374.84;;;3.51;46.03
30935;BME280;51033;42.648;23.292;2023-04-06T11:39:03;93376.38;;;3.81;45.76
30935;BME280;51033;42.648;23.292;2023-04-06T11:41:28;93394.31;;;3.74;45.85
30935;BME280;51033;42.648;23.292;2023-04-06T11:43:55;93379.59;;;3.49;46.26
30935;BME280;51033;42.648;23.292;2023-04-06T11:46:21;93349.72;;;3.64;45.60
30935;BME280;51033;42.648;23.292;2023-04-06T11:48:46;93369.84;;;3.97;44.54
30935;BME280;51033;42.648;23.292;2023-04-06T11:51:12;93372.00;;;3.95;44.57
30935;BME280;51033;42.648;23.292;2023-04-06T11:53:44;93366.84;;;3.85;44.76
30935;BME280;51033;42.648;23.292;2023-04-06T11:56:11;93372.59;;;3.87;44.47
30935;BME280;51033;42.648;23.292;2023-04-06T11:58:36;93359.59;;;3.77;44.56
30935;BME280;51033;42.648;23.292;2023-04-06T12:01:05;93378.66;;;4.06;44.06
30935;BME280;51033;42.648;23.292;2023-04-06T12:03:30;93350.50;;;3.64;44.34
30935;BME280;51033;42.648;23.292;2023-04-06T12:05:56;93382.28;;;3.68;45.52
30935;BME280;51033;42.648;23.292;2023-04-06T12:08:21;93367.19;;;3.78;45.20
30935;BME280;51033;42.648;23.292;2023-04-06T12:10:50;93382.56;;;3.90;44.51
30935;BME280;51033;42.648;23.292;2023-04-06T12:13:15;93372.50;;;3.73;44.85
30935;BME280;51033;42.648;23.292;2023-04-06T12:15:41;93356.41;;;3.32;44.40
30935;BME280;51033;42.648;23.292;2023-04-06T12:18:06;93375.44;;;3.43;45.54
30935;BME280;51033;42.648;23.292;2023-04-06T12:20:32;93360.63;;;3.28;45.78
30935;BME280;51033;42.648;23.292;2023-04-06T12:22:57;93379.72;;;3.63;45.54
30935;BME280;51033;42.648;23.292;2023-04-06T12:25:23;93373.66;;;3.38;44.97
30935;BME280;51033;42.648;23.292;2023-04-06T12:27:48;93368.75;;;3.56;45.40
30935;BME280;51033;42.648;23.292;2023-04-06T12:30:14;93358.97;;;2.80;46.77
30935;BME280;51033;42.648;23.292;2023-04-06T12:32:40;93359.97;;;3.18;46.78
30935;BME280;51033;42.648;23.292;2023-04-06T12:35:05;93383.97;;;3.59;45.69
30935;BME280;51033;42.648;23.292;2023-04-06T12:37:34;93367.47;;;3.53;44.92
30935;BME280;51033;42.648;23.292;2023-04-06T12:39:59;93358.72;;;3.34;45.28
30935;BME280;51033;42.648;23.292;2023-04-06T12:42:25;93369.56;;;3.56;44.90
30935;BME280;51033;42.648;23.292;2023-04-06T12:44:51;93349.41;;;3.70;44.60
30935;BME280;51033;42.648;23.292;2023-04-06T12:47:17;93366.84;;;3.85;43.62
30935;BME280;51033;42.648;23.292;2023-04-06T12:49:45;93362.81;;;3.69;43.72
30935;BME280;51033;42.648;23.292;2023-04-06T12:52:11;93347.16;;;3.59;43.90
30935;BME280;51033;42.648;23.292;2023-04-06T12:54:36;93344.16;;;3.47;44.09
30935;BME280;51033;42.648;23.292;2023-04-06T12:57:02;93356.69;;;3.55;44.02
30935;BME280;51033;42.648;23.292;2023-04-06T12:59:27;93339.66;;;3.71;44.18
30935;BME280;51033;42.648;23.292;2023-04-06T13:01:59;93347.63;;;3.66;44.35